Time;durP1;ratioP1;P1;durP2;ratioP2;P2;SDS_P1;SDS_P2;PMS_P1;PMS_P2;Temp;Humidity;BMP_temperature;BMP_pressure;BME280_temperature;BME280_humidity;BME280_pressure;Samples;Min_cycle;Max_cycle;Signal;HPM_P1;HPM_P2
2022/05/04 00:01:16;;;;;;;30.77;17.87;;;;;;;7.04;nan;-24013.50;4917332;29;20227;-70
2022/05/04 00:03:41;;;;;;;32.77;18.03;;;;;;;7.06;nan;-24014.09;4917063;29;20635;-70
2022/05/04 00:06:07;;;;;;;32.87;17.83;;;;;;;6.84;nan;-24008.00;4916844;29;20331;-70
2022/05/04 00:08:33;;;;;;;27.93;16.47;;;;;;;6.47;nan;-23997.63;4916844;29;20639;-70
2022/05/04 00:10:59;;;;;;;29.33;16.10;;;;;;;6.45;nan;-23997.06;4917168;29;20246;-70
2022/05/04 00:13:25;;;;;;;30.10;17.13;;;;;;;6.50;nan;-23998.34;4916996;29;20222;-69
2022/05/04 00:15:50;;;;;;;31.70;16.03;;;;;;;6.84;nan;-24007.84;4916588;29;20183;-70
2022/05/04 00:18:16;;;;;;;25.80;15.43;;;;;;;6.62;nan;-24001.75;4916630;29;20207;-70
2022/05/04 00:20:41;;;;;;;26.50;15.80;;;;;;;6.78;nan;-24006.13;4908939;29;20676;-69
2022/05/04 00:23:07;;;;;;;23.67;14.50;;;;;;;7.10;nan;-24015.34;4897709;29;20187;-70
2022/05/04 00:25:32;;;;;;;28.00;15.00;;;;;;;6.97;nan;-24011.53;4897843;29;20251;-69
2022/05/04 00:28:00;;;;;;;24.30;14.80;;;;;;;6.74;nan;-24005.00;4881328;29;20217;-69
2022/05/04 00:30:26;;;;;;;22.70;14.47;;;;;;;6.92;nan;-24010.25;4906926;29;20698;-69
2022/05/04 00:32:51;;;;;;;25.57;14.37;;;;;;;6.91;nan;-24009.97;4916396;29;20203;-69
2022/05/04 00:35:17;;;;;;;25.10;14.53;;;;;;;6.40;nan;-23995.50;4916680;29;20172;-70
2022/05/04 00:37:42;;;;;;;24.33;14.53;;;;;;;4.29;nan;-23936.19;4915864;29;20266;-70
2022/05/04 00:40:08;;;;;;;25.07;14.00;;;;;;;6.75;nan;-24005.28;4915638;29;20194;-69
2022/05/04 00:42:34;;;;;;;24.90;13.93;;;;;;;6.56;nan;-24000.03;4916567;29;20263;-70
2022/05/04 00:44:59;;;;;;;24.27;13.97;;;;;;;6.79;nan;-24006.56;4916248;29;20723;-70
2022/05/04 00:47:25;;;;;;;22.73;13.87;;;;;;;6.83;nan;-24007.56;4899473;29;20185;-70
2022/05/04 00:49:52;;;;;;;26.73;14.23;;;;;;;6.94;nan;-24010.69;4916682;29;20180;-70
2022/05/04 00:52:18;;;;;;;26.67;15.00;;;;;;;6.80;nan;-24006.72;4915839;29;20199;-70
2022/05/04 00:54:46;;;;;;;24.17;14.57;;;;;;;6.88;nan;-24009.13;4916624;29;20191;-70
2022/05/04 00:57:14;;;;;;;26.23;13.77;;;;;;;6.62;nan;-24001.75;4903421;29;20579;-70
2022/05/04 00:59:41;;;;;;;23.90;14.27;;;;;;;6.35;nan;-23994.22;4897502;29;20233;-68
2022/05/04 01:02:06;;;;;;;24.73;14.30;;;;;;;5.72;nan;-23976.59;4897021;29;20709;-70
2022/05/04 01:04:32;;;;;;;22.53;13.67;;;;;;;6.61;nan;-24001.59;4897270;29;20183;-69
2022/05/04 01:06:57;;;;;;;25.07;14.00;;;;;;;6.37;nan;-23994.78;4910608;29;20518;-69
2022/05/04 01:09:23;;;;;;;20.97;13.33;;;;;;;6.53;nan;-23999.19;4916315;29;20191;-69
2022/05/04 01:11:49;;;;;;;24.77;13.87;;;;;;;6.60;nan;-24001.19;4916104;29;20238;-71
2022/05/04 01:14:16;;;;;;;22.67;13.47;;;;;;;6.63;nan;-24002.03;4915870;29;20632;-69
2022/05/04 01:16:44;;;;;;;21.87;13.20;;;;;;;6.57;nan;-24000.47;4916340;29;20183;-69
2022/05/04 01:19:12;;;;;;;23.10;12.73;;;;;;;6.51;nan;-23998.63;4916059;29;20183;-69
2022/05/04 01:21:37;;;;;;;23.50;13.27;;;;;;;6.38;nan;-23995.06;4915886;29;20653;-69
2022/05/04 01:24:03;;;;;;;20.97;13.13;;;;;;;6.47;nan;-23997.63;4915844;29;20176;-69
2022/05/04 01:26:29;;;;;;;26.27;14.10;;;;;;;5.63;nan;-23973.91;4915592;29;20602;-69
2022/05/04 01:28:54;;;;;;;24.63;14.27;;;;;;;6.52;nan;-23998.91;4915929;29;20214;-69
2022/05/04 01:31:20;;;;;;;22.73;13.17;;;;;;;6.62;nan;-24001.88;4915661;29;20558;-70
2022/05/04 01:33:45;;;;;;;24.47;13.40;;;;;;;6.66;nan;-24003.00;4899618;29;20278;-71
2022/05/04 01:36:11;;;;;;;20.87;12.60;;;;;;;6.47;nan;-23997.47;4896503;29;20184;-70
2022/05/04 01:38:36;;;;;;;19.80;12.90;;;;;;;6.17;nan;-23989.25;4896745;29;20176;-70
2022/05/04 01:41:03;;;;;;;18.37;11.93;;;;;;;6.62;nan;-24001.88;4896549;29;20187;-70
2022/05/04 01:43:28;;;;;;;21.07;12.93;;;;;;;6.27;nan;-23991.81;4914376;29;20179;-69
2022/05/04 01:45:54;;;;;;;22.47;13.67;;;;;;;6.36;nan;-23994.34;4915756;29;20239;-71
2022/05/04 01:48:20;;;;;;;22.80;12.80;;;;;;;6.26;nan;-23991.53;4915283;29;20187;-70
2022/05/04 01:50:46;;;;;;;27.73;12.80;;;;;;;6.52;nan;-23999.03;4918080;29;20183;-69
2022/05/04 01:53:12;;;;;;;23.03;12.80;;;;;;;6.13;nan;-23988.13;4919842;29;20199;-69
2022/05/04 01:55:37;;;;;;;23.30;13.17;;;;;;;6.21;nan;-23990.25;4919479;29;20710;-69
2022/05/04 01:58:03;;;;;;;22.23;11.83;;;;;;;6.39;nan;-23995.34;4919462;29;20183;-70
2022/05/04 02:00:29;;;;;;;20.40;11.60;;;;;;;6.62;nan;-24001.75;4919029;29;20189;-70
2022/05/04 02:02:54;;;;;;;19.67;11.80;;;;;;;6.29;nan;-23992.50;4919136;29;20243;-70
2022/05/04 02:05:22;;;;;;;21.00;11.90;;;;;;;6.36;nan;-23994.50;4917626;29;20194;-70
2022/05/04 02:07:48;;;;;;;19.70;11.77;;;;;;;6.48;nan;-23997.75;4919274;29;20180;-69
2022/05/04 02:10:14;;;;;;;17.93;11.57;;;;;;;6.06;nan;-23985.97;4899639;29;20195;-69
2022/05/04 02:12:40;;;;;;;21.63;11.77;;;;;;;6.04;nan;-23985.56;4902487;29;20710;-70
2022/05/04 02:15:06;;;;;;;18.37;11.97;;;;;;;6.51;nan;-23998.63;4918554;29;20179;-70
2022/05/04 02:17:32;;;;;;;23.77;11.40;;;;;;;6.57;nan;-24000.31;4908843;29;20188;-70
2022/05/04 02:19:57;;;;;;;20.87;11.30;;;;;;;6.24;nan;-23990.94;4901204;29;20266;-70
2022/05/04 02:22:23;;;;;;;24.67;11.93;;;;;;;6.40;nan;-23995.63;4899458;29;20188;-70
2022/05/04 02:24:49;;;;;;;17.30;11.33;;;;;;;6.00;nan;-23984.41;4899646;29;20184;-70
2022/05/04 02:27:14;;;;;;;19.20;11.67;;;;;;;6.24;nan;-23990.94;4899744;29;20168;-70
2022/05/04 02:29:40;;;;;;;20.67;12.27;;;;;;;6.12;nan;-23987.69;4899350;29;20666;-70
2022/05/04 02:32:06;;;;;;;22.00;12.70;;;;;;;6.51;nan;-23998.63;4899053;29;20312;-70
2022/05/04 02:34:31;;;;;;;20.47;12.33;;;;;;;6.16;nan;-23988.97;4899609;29;20836;-70
2022/05/04 02:39:41;;;;;;;20.53;12.37;;;;;;;5.85;nan;-23980.16;4899368;29;20645;-70
2022/05/04 02:42:06;;;;;;;22.03;11.47;;;;;;;6.22;nan;-23990.53;4898990;29;20266;-70
2022/05/04 02:44:32;;;;;;;19.83;11.97;;;;;;;6.14;nan;-23988.41;4898083;29;20185;-70
2022/05/04 02:46:57;;;;;;;19.87;11.60;;;;;;;6.05;nan;-23985.69;4897712;29;20188;-70
2022/05/04 02:49:22;;;;;;;22.63;12.47;;;;;;;6.13;nan;-23987.97;4899663;29;20244;-70
2022/05/04 02:51:48;;;;;;;24.10;12.33;;;;;;;6.17;nan;-23989.25;4899782;29;20259;-70
2022/05/04 02:54:13;;;;;;;21.17;12.47;;;;;;;6.09;nan;-23986.97;4907079;29;20184;-70
2022/05/04 02:56:39;;;;;;;21.37;12.87;;;;;;;5.67;nan;-23975.03;4918258;29;20182;-69
2022/05/04 02:59:05;;;;;;;24.03;12.67;;;;;;;6.14;nan;-23988.41;4918387;29;20635;-70
2022/05/04 03:04:22;;;;;;;22.47;11.97;;;;;;;6.31;nan;-23992.94;4909797;29;20195;-70
2022/05/04 03:06:47;;;;;;;26.03;12.87;;;;;;;6.13;nan;-23988.13;4901179;29;20194;-71
2022/05/04 03:09:13;;;;;;;20.87;11.73;;;;;;;6.04;nan;-23985.56;4918274;29;20167;-69
2022/05/04 03:11:56;;;;;;;22.10;12.10;;;;;;;6.42;nan;-23996.06;4917843;29;20189;-69
2022/05/04 03:14:23;;;;;;;20.37;12.07;;;;;;;6.16;nan;-23988.81;4918224;29;20635;-70
2022/05/04 03:16:51;;;;;;;24.00;12.27;;;;;;;5.96;nan;-23983.13;4917954;29;20190;-70
2022/05/04 03:19:17;;;;;;;22.57;12.67;;;;;;;6.47;nan;-23997.47;4918061;29;20191;-69
2022/05/04 03:21:43;;;;;;;20.57;12.17;;;;;;;6.11;nan;-23987.41;4892194;29;20654;-69
2022/05/04 03:24:09;;;;;;;20.83;11.70;;;;;;;6.15;nan;-23988.69;4890292;29;20283;-70
2022/05/04 03:26:35;;;;;;;23.90;11.37;;;;;;;6.39;nan;-23995.22;4890339;29;20200;-69
2022/05/04 03:29:02;;;;;;;18.73;11.07;;;;;;;6.25;nan;-23991.38;4892648;29;20211;-70
2022/05/04 03:31:28;;;;;;;17.70;10.53;;;;;;;6.41;nan;-23995.91;4892412;29;20194;-70
2022/05/04 03:33:53;;;;;;;19.53;11.00;;;;;;;6.81;nan;-24007.13;4892858;29;20212;-70
2022/05/04 03:36:19;;;;;;;21.60;11.03;;;;;;;6.35;nan;-23994.06;4892640;29;20534;-70
2022/05/04 03:38:44;;;;;;;17.70;10.83;;;;;;;6.70;nan;-24003.88;4892714;29;20195;-71
2022/05/04 03:41:10;;;;;;;19.50;11.07;;;;;;;7.48;nan;-24026.00;4891780;29;20561;-70
2022/05/04 03:43:36;;;;;;;21.17;11.10;;;;;;;8.17;nan;-24045.13;4892440;29;20656;-72
2022/05/04 03:46:46;;;;;;;18.67;10.20;;;;;;;9.36;nan;-24078.50;4892320;29;20187;-71
2022/05/04 03:49:15;;;;;;;15.27;9.13;;;;;;;9.86;nan;-24092.34;4891155;29;20275;-66
2022/05/04 03:51:41;;;;;;;12.77;8.67;;;;;;;10.89;nan;-24121.16;4892703;29;20188;-69
2022/05/04 03:54:08;;;;;;;15.57;8.60;;;;;;;11.73;nan;-24144.69;4894939;29;20236;-66
2022/05/04 03:56:34;;;;;;;12.20;8.03;;;;;;;11.50;nan;-24138.34;4894131;29;20192;-73
2022/05/04 03:59:00;;;;;;;11.60;7.73;;;;;;;11.16;nan;-24128.63;4892435;29;20188;-72
2022/05/04 04:01:25;;;;;;;15.63;8.23;;;;;;;10.58;nan;-24112.69;4891813;29;20224;-71
2022/05/04 04:03:51;;;;;;;15.03;8.43;;;;;;;10.99;nan;-24123.97;4875347;29;20196;-72
2022/05/04 04:06:16;;;;;;;11.80;7.90;;;;;;;11.78;nan;-24145.97;4892321;29;20197;-72
2022/05/04 04:08:42;;;;;;;12.77;8.30;;;;;;;12.18;nan;-24157.22;4891211;29;20196;-71
2022/05/04 04:11:08;;;;;;;15.15;7.63;;;;;;;12.97;nan;-24179.03;4891810;29;20186;-72
2022/05/04 04:13:34;;;;;;;13.68;7.97;;;;;;;14.06;nan;-24209.34;4874448;29;20244;-73
2022/05/04 04:15:59;;;;;;;11.43;7.43;;;;;;;13.27;nan;-24187.59;4912213;29;20187;-71
2022/05/04 04:18:26;;;;;;;13.10;7.40;;;;;;;12.83;nan;-24175.38;4912015;29;20199;-72
2022/05/04 04:23:38;;;;;;;10.48;7.72;;;;;;;13.23;nan;-24186.47;4908602;29;20278;-69
2022/05/04 04:26:05;;;;;;;17.25;7.80;;;;;;;13.75;nan;-24200.81;4916505;29;20314;-69
2022/05/04 04:28:33;;;;;;;12.43;7.53;;;;;;;13.91;nan;-24205.28;4916550;29;20207;-71
2022/05/04 04:30:59;;;;;;;11.63;7.38;;;;;;;14.70;nan;-24227.03;4916102;29;20185;-69
2022/05/04 04:33:26;;;;;;;13.32;7.68;;;;;;;14.59;nan;-24224.22;4903341;29;20212;-70
2022/05/04 04:35:59;;;;;;;12.25;7.22;;;;;;;15.08;nan;-24237.53;4897037;29;20258;-71
2022/05/04 04:38:26;;;;;;;10.18;7.53;;;;;;;13.94;nan;-24206.13;4897171;29;20218;-71
2022/05/04 04:40:52;;;;;;;11.30;7.32;;;;;;;12.40;nan;-24163.28;4897599;29;20224;-73
2022/05/04 04:43:20;;;;;;;14.50;7.53;;;;;;;11.91;nan;-24149.63;4897972;29;20187;-69
2022/05/04 04:45:46;;;;;;;16.40;7.60;;;;;;;11.41;nan;-24135.81;4897655;29;20667;-70
2022/05/04 04:48:14;;;;;;;14.68;8.05;;;;;;;12.10;nan;-24154.97;4897234;29;20171;-70
2022/05/04 04:50:39;;;;;;;12.10;7.38;;;;;;;13.22;nan;-24186.19;4896559;29;20228;-71
2022/05/04 04:53:05;;;;;;;11.10;7.80;;;;;;;13.61;nan;-24197.00;4895337;29;20203;-71
2022/05/04 04:55:30;;;;;;;13.90;8.75;;;;;;;14.22;nan;-24213.72;4896758;29;20234;-69
2022/05/04 04:57:56;;;;;;;10.05;6.90;;;;;;;14.09;nan;-24210.19;4896565;29;20320;-72
2022/05/04 05:00:21;;;;;;;11.02;7.00;;;;;;;14.18;nan;-24212.72;4896948;29;20223;-71
2022/05/04 05:02:48;;;;;;;14.10;7.72;;;;;;;14.02;nan;-24208.25;4896391;29;20176;-69
2022/05/04 05:05:13;;;;;;;12.15;7.00;;;;;;;14.23;nan;-24214.13;4896695;29;20275;-70
2022/05/04 05:07:39;;;;;;;10.80;6.95;;;;;;;14.14;nan;-24211.75;4896343;29;20263;-69
2022/05/04 05:10:05;;;;;;;11.98;7.25;;;;;;;14.24;nan;-24214.41;4896780;29;20255;-70
2022/05/04 05:12:32;;;;;;;10.15;6.90;;;;;;;14.07;nan;-24209.63;4896076;29;21064;-69
2022/05/04 05:17:41;;;;;;;11.35;7.10;;;;;;;14.30;nan;-24215.94;4896334;29;20228;-70
2022/05/04 05:20:07;;;;;;;15.15;6.90;;;;;;;14.51;nan;-24221.84;4896486;29;20180;-73
2022/05/04 05:22:33;;;;;;;11.75;6.97;;;;;;;14.91;nan;-24232.94;4895122;29;20188;-72
2022/05/04 05:24:58;;;;;;;11.55;6.93;;;;;;;14.69;nan;-24226.91;4895639;29;20255;-72
2022/05/04 05:27:24;;;;;;;10.95;6.85;;;;;;;14.63;nan;-24225.22;4896293;29;20640;-70
2022/05/04 05:29:49;;;;;;;9.23;6.70;;;;;;;14.68;nan;-24226.63;4896473;29;20168;-73
2022/05/04 05:32:15;;;;;;;12.10;6.80;;;;;;;15.13;nan;-24238.94;4896414;29;20206;-69
2022/05/04 05:34:41;;;;;;;8.75;6.00;;;;;;;14.37;nan;-24218.06;4896406;29;20267;-71
2022/05/04 05:37:06;;;;;;;10.23;5.65;;;;;;;14.34;nan;-24217.22;4896038;29;20180;-72
2022/05/04 05:39:33;;;;;;;11.65;5.38;;;;;;;13.99;nan;-24207.53;4896351;29;20164;-69
2022/05/04 05:41:59;;;;;;;9.35;5.95;;;;;;;13.84;nan;-24203.19;4895954;29;20228;-73
2022/05/04 05:44:25;;;;;;;7.40;5.63;;;;;;;13.59;nan;-24196.31;4894833;29;20172;-71
2022/05/04 05:46:51;;;;;;;8.80;6.15;;;;;;;13.35;nan;-24189.56;4896192;29;20175;-71
2022/05/04 05:49:16;;;;;;;11.15;6.45;;;;;;;13.45;nan;-24192.53;4896507;29;20184;-69
2022/05/04 05:51:42;;;;;;;6.97;5.55;;;;;;;13.07;nan;-24181.97;4896001;29;20260;-71
2022/05/04 05:54:07;;;;;;;11.25;7.38;;;;;;;13.47;nan;-24193.06;4896616;29;20204;-72
2022/05/04 05:56:33;;;;;;;8.38;5.97;;;;;;;13.44;nan;-24192.09;4896009;29;20211;-72
2022/05/04 05:58:59;;;;;;;10.50;6.85;;;;;;;13.55;nan;-24195.31;4894930;29;20172;-68
2022/05/04 06:01:24;;;;;;;9.20;6.57;;;;;;;13.63;nan;-24197.44;4895888;29;20703;-71
2022/05/04 06:03:50;;;;;;;15.30;8.38;;;;;;;14.09;nan;-24210.19;4894592;29;20224;-70
2022/05/04 06:06:16;;;;;;;12.07;6.55;;;;;;;13.57;nan;-24195.75;4894468;29;20896;-71
2022/05/04 06:08:41;;;;;;;9.95;6.57;;;;;;;13.82;nan;-24202.78;4896378;29;20259;-68
2022/05/04 06:11:06;;;;;;;9.95;6.80;;;;;;;13.63;nan;-24197.44;4896045;29;20184;-71
2022/05/04 06:13:32;;;;;;;10.93;6.65;;;;;;;13.57;nan;-24195.75;4895970;29;20683;-75
2022/05/04 06:15:57;;;;;;;8.82;6.03;;;;;;;13.71;nan;-24199.69;4896511;29;20184;-75
2022/05/04 06:18:23;;;;;;;10.43;6.90;;;;;;;13.93;nan;-24205.84;4895272;29;20187;-75
2022/05/04 06:20:48;;;;;;;9.05;6.72;;;;;;;13.35;nan;-24189.56;4896111;29;20283;-75
2022/05/04 06:23:14;;;;;;;14.00;7.80;;;;;;;13.58;nan;-24196.03;4896341;29;20179;-75
2022/05/04 06:25:41;;;;;;;17.13;8.20;;;;;;;13.95;nan;-24206.41;4896302;29;20661;-75
2022/05/04 06:28:06;;;;;;;12.02;8.35;;;;;;;13.66;nan;-24198.28;4896978;29;20188;-73
2022/05/04 06:36:00;;;;;;;9.13;6.32;;;;;;;14.36;nan;-24217.66;4897453;29;20183;-75
2022/05/04 06:38:25;;;;;;;12.23;6.50;;;;;;;14.78;nan;-24229.41;4914987;29;20180;-75
2022/05/04 06:40:51;;;;;;;11.13;6.20;;;;;;;15.19;nan;-24240.63;4899980;29;20195;-75
2022/05/04 06:43:16;;;;;;;8.32;6.18;;;;;;;15.25;nan;-24242.44;4899814;29;20181;-78
2022/05/04 06:45:41;;;;;;;12.93;6.43;;;;;;;15.24;nan;-24242.03;4914178;29;20364;-75
2022/05/04 06:48:07;;;;;;;7.63;5.90;;;;;;;15.68;nan;-24254.22;4898087;29;20180;-75
2022/05/04 06:50:32;;;;;;;8.73;5.82;;;;;;;15.75;nan;-24256.31;4899388;29;20180;-74
2022/05/04 06:52:58;;;;;;;16.08;6.63;;;;;;;15.86;nan;-24259.38;4899302;29;20227;-74
2022/05/04 06:55:23;;;;;;;12.40;7.07;;;;;;;15.69;nan;-24254.63;4899122;29;20180;-75
2022/05/04 06:57:49;;;;;;;10.43;5.70;;;;;;;15.98;nan;-24262.47;4899075;29;20191;-76
2022/05/04 07:00:14;;;;;;;8.10;5.53;;;;;;;15.92;nan;-24260.94;4899275;29;20251;-76
2022/05/04 07:02:40;;;;;;;10.00;5.90;;;;;;;16.09;nan;-24265.56;4899701;29;20224;-74
2022/05/04 07:05:06;;;;;;;9.38;5.90;;;;;;;16.32;nan;-24272.13;4902988;29;20180;-75
2022/05/04 07:07:33;;;;;;;10.48;5.97;;;;;;;16.50;nan;-24277.00;4899899;29;20234;-75
2022/05/04 07:09:59;;;;;;;9.48;4.95;;;;;;;16.59;nan;-24279.41;4899802;29;20250;-77
2022/05/04 07:12:24;;;;;;;7.32;5.30;;;;;;;16.47;nan;-24276.16;4882605;29;20719;-76
2022/05/04 07:14:52;;;;;;;9.93;5.13;;;;;;;16.73;nan;-24283.31;4897912;29;20191;-75
2022/05/04 07:17:18;;;;;;;10.38;5.13;;;;;;;16.79;nan;-24285.13;4897674;29;20231;-76
2022/05/04 07:19:43;;;;;;;8.23;5.38;;;;;;;17.05;nan;-24292.25;4897533;29;20195;-77
2022/05/04 07:22:09;;;;;;;8.30;5.38;;;;;;;17.60;nan;-24307.31;4899217;29;20188;-75
2022/05/04 07:24:34;;;;;;;11.13;5.90;;;;;;;17.71;nan;-24310.38;4882313;29;20184;-74
2022/05/04 07:27:00;;;;;;;7.55;5.43;;;;;;;17.20;nan;-24296.44;4882166;29;20589;-75
2022/05/04 07:29:25;;;;;;;6.38;5.00;;;;;;;16.71;nan;-24282.88;4897722;29;20674;-75
2022/05/04 07:31:50;;;;;;;6.97;5.25;;;;;;;16.50;nan;-24277.00;4898730;29;20192;-75
2022/05/04 07:34:19;;;;;;;8.15;5.60;;;;;;;16.63;nan;-24280.50;4897146;29;20184;-76
2022/05/04 07:36:45;;;;;;;7.30;5.53;;;;;;;16.47;nan;-24276.03;4897211;29;20211;-75
2022/05/04 07:44:40;;;;;;;7.80;5.53;;;;;;;15.82;nan;-24258.28;4898077;29;20175;-75
2022/05/04 07:47:06;;;;;;;8.07;5.95;;;;;;;16.33;nan;-24272.25;4897747;29;20184;-74
2022/05/04 07:49:31;;;;;;;7.72;5.70;;;;;;;16.71;nan;-24282.88;4881371;29;20343;-75
2022/05/04 07:51:57;;;;;;;8.02;5.65;;;;;;;16.37;nan;-24273.25;4897674;29;20196;-75
2022/05/04 07:54:22;;;;;;;12.48;5.63;;;;;;;16.81;nan;-24285.41;4912883;29;20202;-76
2022/05/04 07:56:47;;;;;;;8.90;5.15;;;;;;;17.01;nan;-24291.00;4898294;29;20173;-75
2022/05/04 07:59:13;;;;;;;6.93;5.00;;;;;;;16.79;nan;-24284.97;4896642;29;20187;-74
2022/05/04 08:04:22;;;;;;;9.23;5.43;;;;;;;17.20;nan;-24296.44;4898351;29;20671;-76
2022/05/04 08:06:48;;;;;;;8.50;4.93;;;;;;;17.25;nan;-24297.69;4898066;29;20184;-75
2022/05/04 08:09:13;;;;;;;7.55;5.03;;;;;;;17.49;nan;-24304.25;4898218;29;20668;-75
2022/05/04 08:11:39;;;;;;;23.33;6.88;;;;;;;17.72;nan;-24310.66;4912336;29;20196;-75
2022/05/04 08:14:05;;;;;;;8.68;5.18;;;;;;;17.94;nan;-24316.81;4880764;29;20195;-76
2022/05/04 08:16:30;;;;;;;4.90;3.83;;;;;;;17.82;nan;-24313.31;4898224;29;20172;-75
2022/05/04 08:18:55;;;;;;;5.75;3.60;;;;;;;18.12;nan;-24321.53;4881408;29;20625;-75
2022/05/04 08:21:21;;;;;;;6.82;4.18;;;;;;;18.14;nan;-24322.09;4898381;29;20180;-75
2022/05/04 08:23:46;;;;;;;7.43;4.25;;;;;;;18.24;nan;-24325.03;4897080;29;20199;-75
2022/05/04 08:26:12;;;;;;;6.15;4.20;;;;;;;18.09;nan;-24320.84;4899694;29;20191;-74
2022/05/04 08:28:38;;;;;;;8.38;3.92;;;;;;;18.15;nan;-24322.53;4904243;29;20180;-75
2022/05/04 08:31:06;;;;;;;9.50;4.90;;;;;;;18.22;nan;-24324.34;4908308;29;20195;-75
2022/05/04 08:33:40;;;;;;;6.85;4.82;;;;;;;18.40;nan;-24329.47;4926403;29;20192;-74
2022/05/04 08:36:05;;;;;;;8.07;4.00;;;;;;;18.54;nan;-24333.38;4926768;29;20203;-76
2022/05/04 08:38:31;;;;;;;6.15;4.05;;;;;;;18.30;nan;-24326.56;4933704;29;20172;-75
2022/05/04 08:40:57;;;;;;;5.93;4.25;;;;;;;18.21;nan;-24324.06;4917430;29;20194;-74
2022/05/04 08:43:26;;;;;;;6.05;3.70;;;;;;;18.49;nan;-24331.84;4913360;29;20179;-75
2022/05/04 08:45:53;;;;;;;6.80;3.92;;;;;;;18.60;nan;-24334.91;4928469;29;20184;-75
2022/05/04 08:48:20;;;;;;;6.85;3.78;;;;;;;18.86;nan;-24342.16;4922091;29;20583;-75
2022/05/04 08:50:45;;;;;;;6.55;3.83;;;;;;;18.91;nan;-24343.56;4914993;29;20186;-75
2022/05/04 08:53:12;;;;;;;5.75;3.85;;;;;;;19.21;nan;-24351.63;4900570;29;20199;-75
2022/05/04 08:55:38;;;;;;;5.45;3.60;;;;;;;18.78;nan;-24339.94;4915690;29;20263;-75
2022/05/04 08:58:07;;;;;;;3.83;3.25;;;;;;;19.54;nan;-24360.81;4916172;29;20538;-75
2022/05/04 09:00:33;;;;;;;5.40;3.78;;;;;;;19.54;nan;-24360.66;4915825;29;20188;-77
2022/05/04 09:02:59;;;;;;;6.13;3.83;;;;;;;19.59;nan;-24362.06;4890356;29;20304;-75
2022/05/04 09:05:27;;;;;;;5.88;4.10;;;;;;;19.00;nan;-24345.78;4887671;29;20184;-75
2022/05/04 09:07:54;;;;;;;5.28;3.90;;;;;;;19.60;nan;-24362.34;4889686;29;20187;-75
2022/05/04 09:10:34;;;;;;;4.45;3.53;;;;;;;18.45;nan;-24330.75;4912870;29;20183;-75
2022/05/04 09:13:00;;;;;;;6.10;3.70;;;;;;;19.15;nan;-24350.09;4896496;29;20207;-75
2022/05/04 09:15:30;;;;;;;6.22;3.90;;;;;;;19.55;nan;-24360.94;4896308;29;20180;-74
2022/05/04 09:17:58;;;;;;;6.15;3.83;;;;;;;19.25;nan;-24352.88;4896656;29;20199;-75
2022/05/04 09:23:29;;;;;;;4.13;3.25;;;;;;;19.38;nan;-24356.34;4896426;29;20227;-75
2022/05/04 09:26:00;;;;;;;5.45;2.88;;;;;;;19.65;nan;-24363.72;4896653;29;20194;-76
2022/05/04 09:28:28;;;;;;;4.00;3.10;;;;;;;19.32;nan;-24354.81;4898300;29;20179;-76
2022/05/04 09:31:00;;;;;;;3.60;2.95;;;;;;;19.25;nan;-24352.75;4898293;29;20244;-76
2022/05/04 09:33:27;;;;;;;5.70;2.97;;;;;;;19.41;nan;-24357.34;4910541;29;20290;-74
2022/05/04 09:35:54;;;;;;;3.13;2.80;;;;;;;19.40;nan;-24357.06;4879259;29;20282;-75
2022/05/04 09:46:39;;;;;;;3.10;2.45;;;;;;;19.39;nan;-24356.63;4897089;29;20662;-75
2022/05/04 09:49:13;;;;;;;5.80;2.85;;;;;;;19.44;nan;-24357.88;4896602;29;20195;-75
2022/05/04 09:51:40;;;;;;;5.22;3.03;;;;;;;19.27;nan;-24353.44;4896704;29;20172;-76
2022/05/04 09:54:17;;;;;;;4.38;2.55;;;;;;;19.38;nan;-24356.34;4879617;29;20218;-74
2022/05/04 09:56:51;;;;;;;2.60;2.38;;;;;;;19.47;nan;-24358.84;4896877;29;20172;-75
2022/05/04 09:59:19;;;;;;;3.30;2.40;;;;;;;19.69;nan;-24364.97;4896814;29;20204;-75
2022/05/04 10:01:45;;;;;;;3.10;2.50;;;;;;;19.76;nan;-24366.78;4879870;29;20228;-75
2022/05/04 10:04:12;;;;;;;3.35;2.85;;;;;;;19.68;nan;-24364.69;4896209;29;20207;-76
2022/05/04 10:06:39;;;;;;;3.13;2.70;;;;;;;20.23;nan;-24379.84;4896492;29;20617;-76
2022/05/04 10:09:05;;;;;;;2.83;2.03;;;;;;;20.13;nan;-24377.06;4879457;29;20264;-75
2022/05/04 10:11:33;;;;;;;5.50;2.33;;;;;;;20.14;nan;-24377.34;4912775;29;20179;-77
2022/05/04 10:14:03;;;;;;;3.50;2.47;;;;;;;20.37;nan;-24383.59;4883272;29;20235;-75
2022/05/04 10:16:37;;;;;;;3.50;2.38;;;;;;;19.99;nan;-24373.03;4914548;29;20192;-75
2022/05/04 10:19:08;;;;;;;3.45;2.55;;;;;;;20.42;nan;-24385.00;4899772;29;20175;-76
2022/05/04 10:21:36;;;;;;;5.82;2.40;;;;;;;20.33;nan;-24382.34;4913421;29;20200;-75
2022/05/04 10:24:06;;;;;;;3.08;2.63;;;;;;;20.62;nan;-24390.41;4882607;29;20251;-77
2022/05/04 10:26:36;;;;;;;2.90;2.15;;;;;;;20.95;nan;-24399.41;4882586;29;20184;-75
2022/05/04 10:32:36;;;;;;;2.85;2.55;;;;;;;20.88;nan;-24397.47;4918448;29;20217;-75
2022/05/04 10:35:20;;;;;;;6.63;2.72;;;;;;;20.61;nan;-24390.13;4918802;29;20184;-75
2022/05/04 10:37:58;;;;;;;3.40;2.53;;;;;;;20.96;nan;-24399.84;4917877;29;20175;-75
2022/05/04 10:40:32;;;;;;;5.50;2.90;;;;;;;21.23;nan;-24407.03;4918084;29;20626;-75
2022/05/04 10:42:59;;;;;;;4.00;2.38;;;;;;;21.26;nan;-24407.88;4915278;29;20252;-75
2022/05/04 10:45:30;;;;;;;5.47;2.60;;;;;;;21.06;nan;-24402.59;4881060;29;20248;-75
2022/05/04 10:48:19;;;;;;;3.67;2.50;;;;;;;21.50;nan;-24414.53;4890628;29;20200;-76
2022/05/04 10:51:04;;;;;;;3.90;2.63;;;;;;;21.50;nan;-24414.53;4897852;29;20188;-76
2022/05/04 10:53:29;;;;;;;4.20;3.03;;;;;;;20.88;nan;-24397.63;4899661;29;20210;-75
2022/05/04 10:56:04;;;;;;;3.33;2.70;;;;;;;21.18;nan;-24405.66;4912625;29;20171;-75
2022/05/04 10:58:39;;;;;;;4.10;2.85;;;;;;;20.99;nan;-24400.53;4916745;29;20190;-76
2022/05/04 11:01:05;;;;;;;11.00;3.45;;;;;;;21.32;nan;-24409.53;4918205;29;20277;-76
2022/05/04 11:03:34;;;;;;;3.85;2.72;;;;;;;21.38;nan;-24411.22;4915323;29;20738;-76
2022/05/04 11:06:03;;;;;;;4.95;3.00;;;;;;;21.19;nan;-24405.94;4896913;29;20285;-75
2022/05/04 11:08:34;;;;;;;4.18;3.45;;;;;;;21.14;nan;-24404.69;4900699;29;20215;-76
2022/05/04 11:11:00;;;;;;;3.70;2.63;;;;;;;20.98;nan;-24400.25;4918024;29;20168;-75
2022/05/04 11:13:25;;;;;;;3.95;3.13;;;;;;;21.28;nan;-24408.44;4904276;29;20710;-75
2022/05/04 11:15:52;;;;;;;3.67;3.00;;;;;;;21.43;nan;-24412.72;4899121;29;20183;-75
2022/05/04 11:18:19;;;;;;;5.25;3.58;;;;;;;21.76;nan;-24421.59;4899027;29;20176;-76
2022/05/04 11:20:47;;;;;;;3.65;2.92;;;;;;;21.10;nan;-24403.72;4881871;29;20183;-75
2022/05/04 11:23:13;;;;;;;3.92;2.92;;;;;;;21.90;nan;-24425.47;4896002;29;20192;-75
2022/05/04 11:25:38;;;;;;;5.47;3.67;;;;;;;21.74;nan;-24421.19;4881869;29;20219;-76
2022/05/04 11:28:06;;;;;;;5.45;3.30;;;;;;;21.68;nan;-24419.53;4882643;29;20278;-75
2022/05/04 11:30:32;;;;;;;5.00;3.20;;;;;;;21.60;nan;-24417.44;4898609;29;20551;-78
2022/05/04 11:32:57;;;;;;;5.75;3.35;;;;;;;22.08;nan;-24430.31;4904179;29;20212;-75
2022/05/04 11:35:25;;;;;;;3.65;3.28;;;;;;;;;;4890987;29;20180;-77
2022/05/04 11:37:51;;;;;;;3.88;3.10;;;;;;;22.11;nan;-24431.16;4898390;29;20192;-77
2022/05/04 11:40:17;;;;;;;5.15;3.20;;;;;;;21.93;nan;-24426.31;4897220;29;20203;-75
2022/05/04 11:42:44;;;;;;;3.80;3.40;;;;;;;21.98;nan;-24427.69;4898894;29;20164;-77
2022/05/04 11:45:10;;;;;;;3.50;3.00;;;;;;;22.35;nan;-24437.94;4905966;29;20190;-77
2022/05/04 11:47:36;;;;;;;3.33;2.80;;;;;;;22.38;nan;-24438.63;4917988;29;20239;-76
2022/05/04 11:50:05;;;;;;;3.92;3.30;;;;;;;22.60;nan;-24444.72;4924366;29;20187;-76
2022/05/04 11:52:30;;;;;;;6.72;4.85;;;;;;;22.43;nan;-24440.16;4910422;29;20203;-76
2022/05/04 11:55:01;;;;;;;3.70;3.30;;;;;;;22.23;nan;-24434.63;4913754;29;20179;-76
2022/05/04 11:57:26;;;;;;;4.40;2.80;;;;;;;21.94;nan;-24426.72;4895331;29;20322;-77
2022/05/04 11:59:51;;;;;;;3.53;3.00;;;;;;;21.82;nan;-24423.41;4901026;29;20690;-75
2022/05/04 12:02:17;;;;;;;3.25;2.80;;;;;;;22.10;nan;-24431.03;4914325;29;20695;-76
2022/05/04 12:04:43;;;;;;;5.28;2.97;;;;;;;22.30;nan;-24436.41;4905416;29;20251;-76
2022/05/04 12:07:08;;;;;;;4.30;3.30;;;;;;;22.12;nan;-24431.44;4896932;29;20223;-76
2022/05/04 12:09:34;;;;;;;5.28;3.30;;;;;;;22.54;nan;-24443.06;4898327;29;20184;-75
2022/05/04 12:12:00;;;;;;;5.03;3.30;;;;;;;22.52;nan;-24442.50;4881487;29;20184;-75
2022/05/04 12:14:29;;;;;;;3.72;2.90;;;;;;;22.68;nan;-24446.94;4897886;29;20721;-75